Time;durP1;ratioP1;P1;durP2;ratioP2;P2;SDS_P1;SDS_P2;PMS_P1;PMS_P2;Temp;Humidity;BMP_temperature;BMP_pressure;BME280_temperature;BME280_humidity;BME280_pressure;Samples;Min_cycle;Max_cycle;Signal;HPM_P1;HPM_P2
2023/11/22 09:34:50;;;;;;;;;42.75;32.00;;;;;6.52;80.78;102492.59;5112551;27;45409;-69
2023/11/22 09:37:15;;;;;;;;;40.75;27.50;;;;;6.55;79.77;102494.34;5081043;27;45245;-64
2023/11/22 09:39:40;;;;;;;;;34.75;19.75;;;;;6.61;79.76;102484.09;5099287;27;69254;-61
2023/11/22 09:42:05;;;;;;;;;48.75;36.25;;;;;6.68;79.67;102483.34;5087293;27;72114;-62
2023/11/22 09:44:31;;;;;;;;;48.75;31.00;;;;;6.80;79.98;102480.06;5094654;27;62257;-65
2023/11/22 09:46:56;;;;;;;;;41.25;26.75;;;;;6.93;79.17;102479.41;5103285;27;67706;-63
2023/11/22 09:49:25;;;;;;;;;36.75;26.25;;;;;7.09;79.34;102487.47;5077975;27;45525;-65
2023/11/22 09:51:54;;;;;;;;;40.25;26.50;;;;;7.23;79.11;102476.41;5094050;27;45417;-59
2023/11/22 09:54:20;;;;;;;;;39.75;25.50;;;;;7.35;78.82;102478.31;5103146;27;45510;-59
2023/11/22 09:56:50;;;;;;;;;33.25;22.50;;;;;7.44;78.40;102480.19;5099264;27;45349;-58
2023/11/22 09:59:18;;;;;;;;;37.25;26.50;;;;;7.55;77.32;102488.16;5102222;27;45293;-58
2023/11/22 10:01:43;;;;;;;;;34.00;22.25;;;;;7.65;77.69;102483.91;5085430;27;45422;-58
2023/11/22 10:04:09;;;;;;;;;41.75;28.00;;;;;7.73;77.13;102479.69;5093140;27;74243;-57
2023/11/22 10:06:35;;;;;;;;;32.75;24.00;;;;;7.84;76.73;102480.69;5107638;27;45329;-58
2023/11/22 10:09:08;;;;;;;;;34.25;23.50;;;;;7.91;76.20;102481.66;5095880;27;45743;-57
2023/11/22 10:11:36;;;;;;;;;29.75;21.25;;;;;8.00;75.67;102486.97;5079744;27;45549;-58
2023/11/22 10:14:01;;;;;;;;;29.75;22.50;;;;;8.11;75.25;102482.78;5090708;27;47057;-57
2023/11/22 10:16:27;;;;;;;;;30.25;24.75;;;;;8.23;75.04;102489.84;5094890;27;45509;-57
2023/11/22 10:18:52;;;;;;;;;30.00;22.50;;;;;8.35;74.28;102489.13;5094004;27;50933;-54
2023/11/22 10:21:30;;;;;;;;;32.25;27.75;;;;;8.47;74.24;102491.00;5089264;27;72747;-60
2023/11/22 10:23:56;;;;;;;;;31.50;23.75;;;;;8.58;75.11;102498.94;5092682;27;46041;-56
2023/11/22 10:26:23;;;;;;;;;35.50;27.25;;;;;8.61;74.71;102497.25;5094287;27;45499;-56
2023/11/22 10:28:51;;;;;;;;;31.25;21.50;;;;;8.65;73.83;102499.00;5099049;27;45670;-57
2023/11/22 10:31:17;;;;;;;;;29.50;23.50;;;;;8.71;73.90;102493.88;5089515;27;47381;-60
2023/11/22 10:33:43;;;;;;;;;33.00;23.75;;;;;8.79;72.87;102498.28;5094141;27;46133;-61
2023/11/22 10:36:08;;;;;;;;;30.75;21.75;;;;;8.84;72.73;102499.19;5092686;27;45990;-60
2023/11/22 10:38:34;;;;;;;;;27.00;21.75;;;;;8.93;73.00;102492.28;5091716;27;45406;-57
2023/11/22 10:41:01;;;;;;;;;35.50;29.75;;;;;9.00;72.59;102495.84;5093252;27;47142;-59
2023/11/22 10:43:32;;;;;;;;;38.50;30.75;;;;;9.05;72.34;102501.97;5093001;27;45571;-57
2023/11/22 10:45:58;;;;;;;;;28.00;24.50;;;;;9.09;72.64;102500.25;5078754;27;45447;-57
2023/11/22 10:48:24;;;;;;;;;35.75;29.00;;;;;9.10;71.96;102492.44;5073986;27;48157;-57
2023/11/22 10:50:53;;;;;;;;;31.50;19.00;;;;;9.11;71.56;102491.56;5075952;27;45455;-57
2023/11/22 10:53:25;;;;;;;;;27.00;21.00;;;;;9.12;71.41;102488.09;5081882;27;46304;-59
2023/11/22 10:55:55;;;;;;;;;30.75;19.75;;;;;9.11;71.02;102475.88;5075931;28;45703;-59
2023/11/22 10:58:21;;;;;;;;;32.50;22.00;;;;;9.10;70.81;102475.88;5080875;27;45315;-59
2023/11/22 11:00:46;;;;;;;;;23.00;21.00;;;;;9.10;70.27;102474.16;5080059;28;45500;-58
2023/11/22 11:03:14;;;;;;;;;27.00;19.75;;;;;9.13;69.95;102471.53;5082310;28;46137;-58
2023/11/22 11:05:54;;;;;;;;;26.00;19.50;;;;;9.18;69.63;102468.13;5080888;27;45183;-59
2023/11/22 11:08:20;;;;;;;;;35.75;24.25;;;;;9.25;69.27;102475.97;5082392;27;45350;-58
2023/11/22 11:10:46;;;;;;;;;25.00;21.50;;;;;9.31;69.42;102469.91;5081904;27;45325;-59
2023/11/22 11:13:13;;;;;;;;;20.00;18.75;;;;;9.38;69.15;102478.69;5081784;27;45296;-59
2023/11/22 11:15:40;;;;;;;;;38.25;19.25;;;;;9.40;68.37;102476.94;5082243;27;45250;-59
2023/11/22 11:18:06;;;;;;;;;23.25;17.50;;;;;9.41;68.42;102479.56;5077105;27;45408;-58
2023/11/22 11:20:50;;;;;;;;;27.00;18.25;;;;;9.45;68.32;102480.47;5080732;28;46016;-59
2023/11/22 11:23:36;;;;;;;;;15.25;11.75;;;;;9.50;66.83;102482.22;5076675;27;45719;-59
2023/11/22 11:26:21;;;;;;;;;23.25;17.50;;;;;9.54;67.15;102485.72;5082831;27;73031;-59
2023/11/22 11:28:48;;;;;;;;;27.25;17.00;;;;;9.54;66.93;102475.28;5068547;28;45296;-59
2023/11/22 11:31:16;;;;;;;;;15.00;11.75;;;;;9.54;66.47;102471.81;5080599;27;45605;-58
2023/11/22 11:33:47;;;;;;;;;20.50;16.00;;;;;9.54;66.77;102467.44;5081126;27;46096;-58
2023/11/22 11:36:24;;;;;;;;;19.25;13.25;;;;;9.55;65.95;102450.03;5072244;27;45410;-59
2023/11/22 11:38:52;;;;;;;;;13.75;12.75;;;;;9.55;65.21;102457.88;5075762;28;45453;-58
2023/11/22 11:41:17;;;;;;;;;14.00;12.50;;;;;9.64;64.97;102455.31;5080880;27;45181;-59
2023/11/22 11:43:47;;;;;;;;;18.00;13.75;;;;;9.69;65.32;102458.81;5079906;27;75505;-58
2023/11/22 11:46:13;;;;;;;;;16.25;12.00;;;;;9.72;65.19;102450.09;5080846;27;45362;-58
2023/11/22 11:48:43;;;;;;;;;20.00;13.00;;;;;9.75;65.85;102444.88;5080805;27;45497;-58
2023/11/22 11:51:09;;;;;;;;;19.00;17.25;;;;;9.77;64.55;102444.00;5080044;27;45280;-58
2023/11/22 11:53:34;;;;;;;;;24.75;19.75;;;;;9.77;65.16;102440.53;5079125;28;75779;-58
2023/11/22 11:56:01;;;;;;;;;20.00;14.00;;;;;9.74;64.63;102451.88;5079470;27;45295;-58
2023/11/22 11:58:27;;;;;;;;;17.25;13.75;;;;;9.76;64.21;102455.34;5080755;27;46364;-58
2023/11/22 12:00:54;;;;;;;;;16.50;12.75;;;;;9.74;63.77;102446.63;5072941;28;45461;-58
2023/11/22 12:03:21;;;;;;;;;18.75;15.25;;;;;9.71;63.47;102438.78;5088508;27;46840;-58
2023/11/22 12:05:47;;;;;;;;;15.50;12.00;;;;;9.74;63.10;102437.91;5080488;27;45799;-57
2023/11/22 12:08:15;;;;;;;;;21.25;13.50;;;;;9.74;61.69;102437.91;5079830;27;45586;-58
2023/11/22 12:10:53;;;;;;;;;33.75;23.75;;;;;9.80;62.66;102443.16;5063174;28;45526;-58
2023/11/22 12:13:21;;;;;;;;;15.75;13.00;;;;;9.85;62.52;102457.13;5091352;27;45423;-59
2023/11/22 12:15:47;;;;;;;;;15.50;11.25;;;;;9.89;62.46;102464.97;5079877;28;45761;-58
2023/11/22 12:18:13;;;;;;;;;12.00;11.50;;;;;9.94;62.04;102461.53;5076956;28;45356;-57
2023/11/22 12:20:39;;;;;;;;;14.75;9.25;;;;;9.96;62.37;102463.25;5081063;27;45247;-58
2023/11/22 12:23:04;;;;;;;;;19.25;14.25;;;;;9.97;61.79;102451.94;5083125;27;48054;-58
2023/11/22 12:25:30;;;;;;;;;14.50;12.75;;;;;9.98;61.66;102452.81;5076963;27;45275;-58
2023/11/22 12:27:56;;;;;;;;;19.75;11.75;;;;;9.94;61.48;102443.22;5080005;27;45286;-58
2023/11/22 12:30:28;;;;;;;;;17.25;14.25;;;;;9.93;61.35;102442.31;5080821;28;45362;-58
2023/11/22 12:32:53;;;;;;;;;22.50;13.75;;;;;9.95;61.33;102439.72;5075233;28;47134;-58
2023/11/22 12:35:18;;;;;;;;;17.50;14.00;;;;;9.92;61.44;102429.28;5072831;28;54704;-59
2023/11/22 12:37:44;;;;;;;;;17.75;14.25;;;;;9.94;60.17;102438.00;5075617;28;69336;-59
2023/11/22 12:40:10;;;;;;;;;10.25;10.25;;;;;9.97;61.17;102428.41;5080707;27;45161;-59
2023/11/22 12:42:46;;;;;;;;;21.25;11.50;;;;;9.98;60.35;102429.28;5078006;27;46040;-58
2023/11/22 12:45:23;;;;;;;;;12.50;10.25;;;;;9.99;59.84;102425.81;5080175;27;49615;-59
2023/11/22 12:47:50;;;;;;;;;12.00;10.00;;;;;10.00;59.33;102432.75;5069285;27;45367;-58
2023/11/22 12:50:43;;;;;;;;;7.00;5.25;;;;;10.03;58.42;102438.00;5080548;28;45315;-58
2023/11/22 12:53:12;;;;;;;;;4.75;4.75;;;;;10.02;58.31;102434.53;5073383;28;46348;-58
2023/11/22 12:55:46;;;;;;;;;12.25;8.75;;;;;10.03;58.03;102424.94;5080156;27;45229;-59
2023/11/22 12:58:12;;;;;;;;;14.00;9.00;;;;;10.02;57.47;102421.47;5080299;27;45302;-58
2023/11/22 13:00:40;;;;;;;;;8.00;7.00;;;;;10.02;57.49;102417.94;5074612;27;45448;-58
2023/11/22 13:03:07;;;;;;;;;12.25;7.75;;;;;10.00;56.84;102417.06;5079193;27;49394;-58
2023/11/22 13:05:32;;;;;;;;;10.75;8.75;;;;;9.96;56.84;102423.16;5080266;27;45322;-58
2023/11/22 13:07:58;;;;;;;;;15.25;9.75;;;;;9.93;57.10;102417.94;5077882;28;67852;-58
2023/11/22 13:10:26;;;;;;;;;12.25;11.00;;;;;9.93;56.68;102428.38;5079249;27;73239;-58
2023/11/22 13:12:53;;;;;;;;;9.50;7.00;;;;;9.93;56.79;102426.63;5077364;27;46308;-58
2023/11/22 13:15:20;;;;;;;;;9.25;7.00;;;;;9.96;56.98;102437.13;5078963;28;45750;-58
2023/11/22 13:17:46;;;;;;;;;11.25;7.75;;;;;9.98;56.03;102448.44;5079023;27;45624;-58
2023/11/22 13:20:14;;;;;;;;;12.75;6.25;;;;;9.99;55.84;102452.81;5080134;27;45465;-59
2023/11/22 13:22:42;;;;;;;;;19.25;8.50;;;;;9.98;55.97;102445.84;5079773;27;46145;-59
2023/11/22 13:25:10;;;;;;;;;7.75;6.00;;;;;9.97;55.67;102435.34;5079744;27;45759;-59
2023/11/22 13:27:38;;;;;;;;;8.75;7.00;;;;;9.98;55.79;102426.66;5079680;27;45326;-59
2023/11/22 13:30:04;;;;;;;;;14.00;10.00;;;;;9.97;55.77;102428.41;5085146;27;45461;-59
2023/11/22 13:32:30;;;;;;;;;17.75;9.75;;;;;10.01;56.16;102429.28;5078220;28;46087;-59
2023/11/22 13:34:57;;;;;;;;;16.75;11.00;;;;;10.06;56.53;102431.03;5073443;27;45433;-59
2023/11/22 13:37:25;;;;;;;;;11.00;10.75;;;;;10.10;56.58;102433.69;5067022;27;45248;-59
2023/11/22 13:39:51;;;;;;;;;14.50;12.50;;;;;10.11;56.91;102433.69;5069470;27;45156;-59
2023/11/22 13:42:16;;;;;;;;;15.00;13.00;;;;;10.14;56.59;102438.91;5066813;27;76821;-59
2023/11/22 13:44:43;;;;;;;;;14.25;7.00;;;;;10.17;56.16;102438.91;5075680;27;45325;-59
2023/11/22 13:47:09;;;;;;;;;14.25;10.75;;;;;10.17;56.08;102433.69;5079849;27;45461;-59
2023/11/22 13:49:35;;;;;;;;;12.25;10.50;;;;;10.16;56.05;102431.06;5080986;27;45489;-59
2023/11/22 13:52:01;;;;;;;;;13.00;10.75;;;;;10.13;55.80;102428.44;5086107;27;45375;-59
2023/11/22 13:54:27;;;;;;;;;10.50;9.75;;;;;10.12;55.71;102430.19;5075496;27;45296;-59
2023/11/22 13:56:53;;;;;;;;;11.00;11.00;;;;;10.16;56.27;102413.59;5063893;27;68235;-59
2023/11/22 13:59:18;;;;;;;;;13.50;7.00;;;;;10.23;55.94;102412.78;5079915;27;45284;-59
2023/11/22 14:01:45;;;;;;;;;11.00;10.00;;;;;10.31;55.68;102404.06;5078068;27;46135;-59
2023/11/22 14:04:10;;;;;;;;;11.75;8.00;;;;;10.37;55.43;102396.22;5071414;27;45722;-59
2023/11/22 14:06:35;;;;;;;;;12.25;10.00;;;;;10.44;56.08;102405.84;5062736;28;66117;-59
2023/11/22 14:09:01;;;;;;;;;10.00;7.75;;;;;10.46;55.70;102409.31;5069077;28;73128;-59
2023/11/22 14:11:26;;;;;;;;;10.75;7.00;;;;;10.45;54.94;102404.97;5063577;27;72927;-59
2023/11/22 14:13:51;;;;;;;;;10.25;6.75;;;;;10.43;54.93;102398.88;5070078;27;73209;-59
2023/11/22 14:16:18;;;;;;;;;3.25;3.25;;;;;10.44;54.30;102393.59;5087112;27;66792;-59
2023/11/22 14:18:43;;;;;;;;;6.50;6.00;;;;;10.42;54.53;102389.25;5069783;28;45485;-59
2023/11/22 14:21:10;;;;;;;;;8.25;5.00;;;;;10.44;54.41;102384.91;5069713;27;58538;-59
2023/11/22 14:23:36;;;;;;;;;6.00;6.00;;;;;10.41;54.39;102391.00;5073277;27;45874;-59
2023/11/22 14:26:02;;;;;;;;;10.75;5.75;;;;;10.43;54.05;102397.13;5067184;28;45230;-59
2023/11/22 14:28:29;;;;;;;;;4.75;4.00;;;;;10.42;53.20;102399.72;5082063;27;45461;-59
2023/11/22 14:30:54;;;;;;;;;10.00;5.25;;;;;10.40;53.36;102396.25;5078807;27;46174;-59
2023/11/22 14:33:20;;;;;;;;;6.25;5.75;;;;;10.38;53.63;102395.38;5089290;27;45411;-59
2023/11/22 14:35:46;;;;;;;;;10.50;5.75;;;;;10.37;53.76;102401.47;5094590;27;45393;-59
2023/11/22 14:38:13;;;;;;;;;6.00;6.00;;;;;10.32;53.40;102397.97;5092378;27;54377;-59
2023/11/22 14:40:39;;;;;;;;;9.75;6.75;;;;;10.27;53.61;102405.81;5083868;27;47117;-59
2023/11/22 14:43:05;;;;;;;;;5.25;4.50;;;;;10.21;52.75;102409.25;5094627;27;45837;-59
2023/11/22 14:45:32;;;;;;;;;4.75;4.25;;;;;10.18;53.11;102400.53;5102677;27;45760;-59
2023/11/22 14:47:57;;;;;;;;;9.75;5.50;;;;;10.17;53.71;102397.06;5102971;27;45406;-59
2023/11/22 14:50:26;;;;;;;;;6.50;5.25;;;;;10.18;53.40;102395.31;5090392;27;45451;-59
2023/11/22 14:52:52;;;;;;;;;8.75;6.25;;;;;10.19;53.28;102386.59;5084461;27;45908;-59
2023/11/22 14:55:19;;;;;;;;;3.00;3.00;;;;;10.17;53.28;102378.75;5086873;27;68263;-59
2023/11/22 14:57:44;;;;;;;;;6.50;5.50;;;;;10.18;53.48;102375.25;5080722;28;45352;-59
2023/11/22 15:00:12;;;;;;;;;6.50;6.00;;;;;10.19;53.64;102369.16;5099506;27;74315;-59
2023/11/22 15:02:37;;;;;;;;;11.50;7.00;;;;;10.19;53.68;102373.50;5102113;27;45216;-59
2023/11/22 15:05:04;;;;;;;;;7.50;6.25;;;;;10.20;53.84;102376.13;5101847;27;61966;-59
2023/11/22 15:07:30;;;;;;;;;6.25;5.75;;;;;10.20;53.78;102372.66;5102805;27;45217;-59
2023/11/22 15:09:56;;;;;;;;;8.00;7.00;;;;;10.21;53.20;102366.53;5088990;27;46992;-59
2023/11/22 15:12:21;;;;;;;;;7.75;6.25;;;;;10.23;53.43;102365.69;5092323;27;71460;-59
2023/11/22 15:14:46;;;;;;;;;12.25;8.25;;;;;10.24;53.66;102379.63;5089726;27;69048;-59
2023/11/22 15:17:13;;;;;;;;;7.25;7.00;;;;;10.25;53.51;102377.00;5085496;27;68143;-59
2023/11/22 15:19:38;;;;;;;;;11.50;9.75;;;;;10.25;53.61;102378.75;5100916;27;45271;-59
2023/11/22 15:22:04;;;;;;;;;9.50;8.00;;;;;10.26;53.92;102393.56;5109093;27;73023;-59
2023/11/22 15:24:32;;;;;;;;;14.25;11.00;;;;;10.24;54.02;102385.72;5090216;27;45362;-59
2023/11/22 15:26:58;;;;;;;;;17.00;10.25;;;;;10.21;53.72;102393.56;5098388;27;45397;-59
2023/11/22 15:29:24;;;;;;;;;13.25;8.25;;;;;10.21;54.46;102397.94;5085094;27;46193;-59
2023/11/22 15:31:51;;;;;;;;;14.50;8.25;;;;;10.19;54.20;102405.78;5091520;27;73173;-59
2023/11/22 15:34:16;;;;;;;;;11.25;7.50;;;;;10.16;54.08;102416.22;5085772;27;45410;-59
2023/11/22 15:36:43;;;;;;;;;17.25;11.75;;;;;10.13;54.54;102417.97;5090454;27;45467;-60
2023/11/22 15:39:14;;;;;;;;;7.00;7.00;;;;;10.05;54.39;102410.97;5093039;27;63284;-59
2023/11/22 15:41:40;;;;;;;;;8.50;6.00;;;;;10.02;54.43;102416.22;5101788;27;45291;-60
2023/11/22 15:44:06;;;;;;;;;11.25;10.00;;;;;9.97;54.38;102425.78;5099806;27;45292;-59
2023/11/22 15:46:31;;;;;;;;;11.25;9.25;;;;;9.93;54.47;102431.00;5109123;27;45573;-58
2023/11/22 15:48:56;;;;;;;;;10.00;5.75;;;;;9.89;54.97;102436.22;5091330;27;46868;-59
2023/11/22 15:51:22;;;;;;;;;13.00;10.50;;;;;9.88;54.78;102441.47;5092260;27;72740;-59
2023/11/22 15:53:47;;;;;;;;;12.25;7.25;;;;;9.86;55.10;102448.41;5089588;27;69410;-58
2023/11/22 15:56:15;;;;;;;;;13.00;11.75;;;;;9.85;55.12;102434.47;5092812;27;46250;-58
2023/11/22 15:58:42;;;;;;;;;17.00;11.25;;;;;9.83;55.05;102427.50;5086133;27;46012;-59
2023/11/22 16:01:08;;;;;;;;;12.50;8.25;;;;;9.81;55.31;102437.94;5084157;27;45304;-58
2023/11/22 16:03:34;;;;;;;;;17.75;11.00;;;;;9.81;55.87;102439.66;5096577;27;45448;-58
2023/11/22 16:06:00;;;;;;;;;15.25;12.00;;;;;9.81;55.96;102450.13;5092530;27;45244;-59
2023/11/22 16:08:25;;;;;;;;;5.75;5.00;;;;;9.80;55.86;102456.25;5095957;27;46287;-58
2023/11/22 16:10:51;;;;;;;;;10.50;10.25;;;;;9.79;55.78;102451.88;5091973;27;48316;-58
2023/11/22 16:13:16;;;;;;;;;12.50;11.00;;;;;9.77;55.74;102459.69;5096440;27;52162;-59
2023/11/22 16:15:42;;;;;;;;;11.25;10.50;;;;;9.77;56.02;102456.22;5083747;27;45458;-59
2023/11/22 16:18:08;;;;;;;;;10.75;7.75;;;;;9.75;56.21;102455.34;5083323;27;46454;-58
2023/11/22 16:20:33;;;;;;;;;11.00;10.00;;;;;9.74;56.40;102448.34;5093206;27;45346;-58
2023/11/22 16:22:59;;;;;;;;;18.75;10.25;;;;;9.72;56.36;102445.75;5099590;27;69421;-58
2023/11/22 16:25:25;;;;;;;;;12.75;10.00;;;;;9.72;56.65;102434.41;5083327;27;45587;-58
2023/11/22 16:27:51;;;;;;;;;9.75;9.00;;;;;9.69;56.49;102432.66;5081148;27;45657;-59
2023/11/22 16:30:16;;;;;;;;;12.75;10.50;;;;;9.66;56.30;102436.13;5087453;27;45506;-59
2023/11/22 16:32:42;;;;;;;;;11.25;8.00;;;;;9.65;56.75;102451.81;5081939;27;45486;-58
2023/11/22 16:35:08;;;;;;;;;16.25;12.25;;;;;9.64;56.68;102453.56;5095867;27;45275;-58
2023/11/22 16:37:34;;;;;;;;;12.75;12.00;;;;;9.65;56.52;102452.69;5082667;27;45254;-58
2023/11/22 16:40:08;;;;;;;;;20.50;13.25;;;;;9.63;56.93;102461.38;5082627;27;45290;-58
2023/11/22 16:42:34;;;;;;;;;14.25;12.75;;;;;9.63;56.85;102472.75;5077371;27;45464;-58
2023/11/22 16:44:59;;;;;;;;;18.75;14.00;;;;;9.68;57.12;102491.03;5088904;27;45501;-58
2023/11/22 16:47:25;;;;;;;;;15.75;12.75;;;;;9.69;56.79;102485.81;5100255;27;46130;-59
2023/11/22 16:49:50;;;;;;;;;15.75;13.00;;;;;9.68;57.11;102493.66;5101023;27;45228;-59
2023/11/22 16:52:16;;;;;;;;;14.00;10.00;;;;;9.66;56.96;102483.19;5070850;27;65319;-59
2023/11/22 16:54:46;;;;;;;;;15.50;13.50;;;;;9.65;56.72;102484.06;5097209;27;45425;-58
2023/11/22 16:57:12;;;;;;;;;21.00;18.00;;;;;9.63;56.84;102492.75;5083943;27;75526;-59
2023/11/22 16:59:38;;;;;;;;;20.50;14.50;;;;;9.61;57.12;102490.13;5093817;27;45393;-59
2023/11/22 17:02:05;;;;;;;;;19.50;15.00;;;;;9.58;57.07;102492.75;5091640;27;45435;-59
2023/11/22 17:04:31;;;;;;;;;18.00;13.25;;;;;9.55;57.26;102489.25;5107758;27;45195;-59
2023/11/22 17:06:58;;;;;;;;;22.50;15.75;;;;;9.53;57.09;102507.53;5082044;27;46189;-59
2023/11/22 17:09:24;;;;;;;;;22.00;15.00;;;;;9.53;57.18;102506.66;5093897;27;45256;-59
2023/11/22 17:11:50;;;;;;;;;22.00;16.75;;;;;9.51;57.42;102511.88;5064518;28;45541;-59
2023/11/22 17:14:15;;;;;;;;;14.25;13.25;;;;;9.51;57.28;102490.97;5083997;27;45381;-59
2023/11/22 17:16:42;;;;;;;;;22.25;15.50;;;;;9.49;57.49;102485.72;5086816;27;46096;-59
2023/11/22 17:19:08;;;;;;;;;20.25;16.75;;;;;9.51;57.59;102483.13;5097825;27;45176;-59
2023/11/22 17:21:33;;;;;;;;;22.50;16.50;;;;;9.51;57.55;102472.66;5100334;27;45492;-59
2023/11/22 17:23:59;;;;;;;;;19.25;12.75;;;;;9.54;57.55;102471.81;5097282;27;45444;-59
2023/11/22 17:26:24;;;;;;;;;20.00;13.50;;;;;9.54;57.70;102474.41;5078071;28;47230;-59
2023/11/22 17:28:49;;;;;;;;;18.50;13.50;;;;;9.53;57.67;102457.88;5092023;27;73593;-59
2023/11/22 17:31:15;;;;;;;;;15.50;14.50;;;;;9.53;57.42;102459.63;5096918;27;67959;-58
2023/11/22 17:33:40;;;;;;;;;15.00;12.50;;;;;9.54;57.49;102471.81;5100039;27;45426;-58
2023/11/22 17:36:06;;;;;;;;;19.50;13.50;;;;;9.55;57.56;102461.34;5093669;27;71508;-58
2023/11/22 17:38:31;;;;;;;;;19.50;14.50;;;;;9.56;57.52;102465.72;5088068;27;45504;-58
2023/11/22 17:40:57;;;;;;;;;17.00;12.00;;;;;9.59;57.50;102457.03;5096062;27;49265;-58
2023/11/22 17:43:23;;;;;;;;;29.75;18.00;;;;;9.60;57.53;102456.16;5064061;28;45496;-58
2023/11/22 17:45:48;;;;;;;;;18.00;15.25;;;;;9.61;57.31;102468.34;5083027;27;47058;-58
2023/11/22 17:48:14;;;;;;;;;14.25;11.00;;;;;9.61;57.63;102466.59;5087167;27;45650;-58
2023/11/22 17:50:40;;;;;;;;;23.00;18.50;;;;;9.63;57.28;102456.16;5094938;27;45560;-58
2023/11/22 17:53:05;;;;;;;;;23.25;17.25;;;;;9.63;57.95;102443.97;5082170;27;46313;-58
2023/11/22 17:55:31;;;;;;;;;25.25;18.50;;;;;9.64;57.93;102437.88;5081960;27;47190;-58
2023/11/22 17:57:56;;;;;;;;;21.00;14.75;;;;;9.65;57.70;102441.34;5093768;27;45378;-58
2023/11/22 18:00:22;;;;;;;;;19.00;12.25;;;;;9.66;57.72;102440.50;5081791;27;69246;-58
2023/11/22 18:02:48;;;;;;;;;20.50;14.00;;;;;9.65;57.80;102439.63;5103531;27;45280;-59
2023/11/22 18:05:13;;;;;;;;;18.25;14.00;;;;;9.66;57.56;102446.59;5097561;27;46581;-58
2023/11/22 18:07:38;;;;;;;;;16.00;13.25;;;;;9.67;57.79;102461.41;5094746;27;72580;-58
2023/11/22 18:10:05;;;;;;;;;3.50;2.00;;;;;9.66;57.81;102459.66;5106630;27;68293;-58
2023/11/22 18:12:30;;;;;;;;;17.75;13.25;;;;;9.66;57.82;102458.78;5093883;27;45233;-58
2023/11/22 18:14:56;;;;;;;;;17.00;12.00;;;;;9.65;57.64;102462.25;5099716;27;46272;-58
2023/11/22 18:17:22;;;;;;;;;21.25;15.25;;;;;9.66;57.62;102470.13;5095882;27;47575;-58
2023/11/22 18:19:48;;;;;;;;;29.50;20.50;;;;;9.67;57.60;102481.47;5096624;27;45441;-58
2023/11/22 18:22:13;;;;;;;;;20.75;18.50;;;;;9.67;58.01;102495.41;5081129;27;45473;-58
2023/11/22 18:24:38;;;;;;;;;23.75;15.25;;;;;9.67;57.82;102503.25;5097380;27;75716;-58
2023/11/22 18:27:04;;;;;;;;;19.00;18.75;;;;;9.69;57.88;102506.72;5092876;27;71317;-58
2023/11/22 18:29:29;;;;;;;;;21.50;17.50;;;;;9.70;57.83;102489.31;5096545;27;68245;-58
2023/11/22 18:32:02;;;;;;;;;22.75;19.00;;;;;9.70;57.90;102489.31;5095327;27;59202;-57
2023/11/22 18:34:31;;;;;;;;;30.25;18.25;;;;;9.68;57.69;102491.94;5087398;27;45368;-58
2023/11/22 18:36:57;;;;;;;;;20.75;16.00;;;;;9.66;57.78;102493.63;5090701;27;45859;-58
2023/11/22 18:39:23;;;;;;;;;18.25;15.50;;;;;9.67;57.59;102491.91;5070066;27;45401;-58
2023/11/22 18:41:48;;;;;;;;;20.25;14.00;;;;;9.66;57.76;102487.53;5085464;27;45379;-58
2023/11/22 18:44:14;;;;;;;;;23.25;15.75;;;;;9.65;57.73;102486.69;5100440;27;75669;-58
2023/11/22 18:46:39;;;;;;;;;27.00;24.00;;;;;9.67;57.94;102481.47;5108594;27;66957;-58
2023/11/22 18:49:05;;;;;;;;;20.25;16.25;;;;;9.68;57.71;102486.72;5102254;27;45421;-58
2023/11/22 18:51:30;;;;;;;;;31.25;26.75;;;;;9.71;57.70;102493.69;5092500;27;45262;-58
2023/11/22 18:53:55;;;;;;;;;32.00;19.50;;;;;9.71;57.97;102484.97;5090595;27;75480;-58
2023/11/22 18:56:21;;;;;;;;;22.75;18.50;;;;;9.73;57.64;102491.06;5096971;27;72156;-58
2023/11/22 18:58:47;;;;;;;;;30.00;19.25;;;;;9.73;57.70;102494.56;5091183;27;61268;-58
2023/11/22 19:01:12;;;;;;;;;23.50;17.25;;;;;9.76;58.08;102486.72;5092875;27;45316;-57
2023/11/22 19:03:38;;;;;;;;;21.50;13.50;;;;;9.78;58.03;102471.91;5072036;27;54363;-58
2023/11/22 19:06:03;;;;;;;;;14.50;13.00;;;;;9.79;57.85;102468.44;5082806;27;70598;-57
2023/11/22 19:08:28;;;;;;;;;24.25;21.25;;;;;9.82;58.12;102467.56;5092516;27;63540;-58
2023/11/22 19:10:54;;;;;;;;;30.50;23.00;;;;;9.83;58.04;102469.34;5082939;27;73277;-58
2023/11/22 19:13:21;;;;;;;;;31.25;25.50;;;;;9.81;58.08;102473.66;5084619;27;71199;-57
2023/11/22 19:15:46;;;;;;;;;27.00;23.25;;;;;9.83;57.90;102478.03;5085365;27;45350;-58
2023/11/22 19:18:12;;;;;;;;;32.50;28.00;;;;;9.86;58.31;102482.41;5083670;27;45214;-59
2023/11/22 19:20:39;;;;;;;;;37.25;33.00;;;;;9.85;58.17;102472.81;5082979;27;45812;-58
2023/11/22 19:23:05;;;;;;;;;37.50;29.50;;;;;9.87;58.34;102477.19;5102055;27;47141;-58
2023/11/22 19:25:32;;;;;;;;;33.00;25.25;;;;;9.88;58.37;102473.72;5091045;27;46183;-58
2023/11/22 19:27:57;;;;;;;;;29.75;23.00;;;;;9.89;58.21;102485.03;5091827;27;45321;-59
2023/11/22 19:30:23;;;;;;;;;33.75;24.25;;;;;9.91;58.44;102488.53;5087109;27;45327;-58
2023/11/22 19:32:48;;;;;;;;;29.25;24.75;;;;;9.92;58.18;102486.81;5096027;27;66059;-59
2023/11/22 19:35:14;;;;;;;;;36.00;29.75;;;;;9.93;58.22;102480.69;5073160;27;56703;-59
2023/11/22 19:37:39;;;;;;;;;34.25;25.50;;;;;9.92;58.22;102484.19;5086076;27;45557;-58
2023/11/22 19:40:07;;;;;;;;;30.00;27.75;;;;;9.93;58.48;102484.16;5099512;27;45383;-59
2023/11/22 19:42:34;;;;;;;;;27.75;25.00;;;;;9.92;58.28;102474.59;5083387;27;46344;-59
2023/11/22 19:44:59;;;;;;;;;36.50;25.25;;;;;9.93;58.77;102485.91;5104042;27;45699;-58
2023/11/22 19:47:25;;;;;;;;;28.75;26.00;;;;;9.92;58.52;102489.41;5083666;27;45667;-59
2023/11/22 19:49:50;;;;;;;;;32.25;28.00;;;;;9.91;58.43;102485.91;5101995;27;45339;-59
2023/11/22 19:52:16;;;;;;;;;34.75;22.00;;;;;9.91;58.78;102492.88;5099597;27;75190;-59
2023/11/22 19:54:41;;;;;;;;;30.25;22.00;;;;;9.88;58.45;102489.41;5100839;27;73306;-59
2023/11/22 19:57:08;;;;;;;;;30.50;25.50;;;;;9.86;58.44;102487.63;5100038;27;68276;-59
2023/11/22 19:59:33;;;;;;;;;34.75;27.50;;;;;9.87;58.57;102484.16;5091899;27;45317;-57
2023/11/22 20:01:59;;;;;;;;;33.75;26.25;;;;;9.85;58.49;102483.28;5096725;27;49377;-57
2023/11/22 20:04:24;;;;;;;;;29.00;23.75;;;;;9.84;58.61;102489.38;5070234;27;72689;-58
2023/11/22 20:06:49;;;;;;;;;33.75;24.50;;;;;9.83;58.30;102491.13;5095201;27;69493;-57
2023/11/22 20:09:15;;;;;;;;;32.25;22.25;;;;;9.82;58.16;102489.34;5081986;27;45530;-58
2023/11/22 20:11:40;;;;;;;;;23.25;19.00;;;;;9.82;58.45;102494.59;5080424;27;56197;-59
2023/11/22 20:14:06;;;;;;;;;22.50;20.25;;;;;9.82;58.32;102494.59;5091086;27;52954;-58
2023/11/22 20:16:31;;;;;;;;;26.75;20.75;;;;;9.84;57.98;102490.25;5082696;27;45597;-58
2023/11/22 20:18:57;;;;;;;;;24.50;17.25;;;;;9.85;58.16;102494.59;5065773;28;45353;-59
2023/11/22 20:21:23;;;;;;;;;25.25;21.00;;;;;9.86;58.06;102495.47;5079596;27;47335;-58
2023/11/22 20:23:48;;;;;;;;;24.75;19.00;;;;;9.84;58.15;102486.75;5111854;27;45387;-58
2023/11/22 20:26:14;;;;;;;;;34.25;23.25;;;;;9.84;57.79;102486.75;5110858;27;45980;-59
2023/11/22 20:28:40;;;;;;;;;25.00;21.75;;;;;9.83;57.82;102496.34;5103244;27;45455;-58
2023/11/22 20:31:05;;;;;;;;;27.00;22.50;;;;;9.81;57.74;102495.47;5101743;27;46292;-59
2023/11/22 20:33:30;;;;;;;;;25.75;21.50;;;;;9.80;57.88;102495.47;5087305;27;45286;-59
2023/11/22 20:35:56;;;;;;;;;28.50;24.25;;;;;9.77;57.38;102491.06;5098761;27;54319;-59
2023/11/22 20:38:22;;;;;;;;;24.50;21.50;;;;;9.77;57.61;102490.22;5091791;27;45426;-59
2023/11/22 20:40:47;;;;;;;;;23.50;23.00;;;;;9.74;57.81;102488.47;5099548;27;47011;-57
2023/11/22 20:43:12;;;;;;;;;22.50;19.25;;;;;9.74;57.79;102483.25;5099244;27;70898;-58
2023/11/22 20:45:38;;;;;;;;;28.75;19.75;;;;;9.74;57.92;102485.84;5108889;27;60012;-58
2023/11/22 20:48:07;;;;;;;;;22.75;19.25;;;;;9.73;57.73;102478.88;5080618;27;73033;-58
2023/11/22 20:50:32;;;;;;;;;29.00;22.25;;;;;9.71;58.05;102478.00;5097651;27;46356;-58